createdAt,value
2019-05-02T00:00:11.277Z,96.90
2019-05-02T00:02:14.172Z,97.50
2019-05-02T00:04:19.992Z,98.30
2019-05-02T00:06:20.572Z,98.40
2019-05-02T00:08:22.268Z,98.10
2019-05-02T00:10:25.982Z,99.00
2019-05-02T00:12:27.781Z,98.20
2019-05-02T00:14:29.969Z,97.50
2019-05-02T00:16:31.630Z,96.70
2019-05-02T00:18:37.314Z,97.10
2019-05-02T00:20:36.880Z,98.00
2019-05-02T00:22:38.564Z,96.90
2019-05-02T00:24:41.099Z,95.90
2019-05-02T00:26:43.238Z,96.70
2019-05-02T00:28:48.184Z,96.70
2019-05-02T00:30:48.769Z,97.10
2019-05-02T00:32:53.226Z,96.60
2019-05-02T00:34:54.024Z,95.70
2019-05-02T00:36:55.700Z,95.60
2019-05-02T00:38:57.649Z,95.80
2019-05-02T00:41:02.271Z,95.60
2019-05-02T00:43:03.206Z,96.00
2019-05-02T00:45:05.264Z,95.00
2019-05-02T00:47:15.984Z,94.70
2019-05-02T00:49:17.669Z,94.40
2019-05-02T00:51:21.933Z,94.90
2019-05-02T00:53:22.916Z,94.00
2019-05-02T00:55:28.781Z,94.70
2019-05-02T00:57:28.493Z,94.50
2019-05-02T00:59:30.216Z,94.00
2019-05-02T01:01:40.141Z,95.20
2019-05-02T01:03:47.190Z,94.50
2019-05-02T01:05:46.920Z,94.30
2019-05-02T01:07:48.581Z,94.80
2019-05-02T01:09:50.588Z,94.70
2019-05-02T01:11:52.240Z,94.00
2019-05-02T01:13:55.745Z,93.80
2019-05-02T01:15:57.793Z,93.60
2019-05-02T01:18:01.133Z,91.60
2019-05-02T01:20:03.980Z,93.40
2019-05-02T01:22:05.648Z,92.30
2019-05-02T01:24:07.681Z,92.20
2019-05-02T01:26:10.349Z,93.70
2019-05-02T01:28:18.752Z,94.80
2019-05-02T01:30:30.937Z,95.00
2019-05-02T01:32:45.182Z,95.20
2019-05-02T01:35:12.340Z,94.90
2019-05-02T01:37:21.011Z,95.50
2019-05-02T01:39:23.120Z,95.50
2019-05-02T01:41:29.081Z,94.80
2019-05-02T01:43:29.249Z,94.60
2019-05-02T01:45:30.970Z,95.10
2019-05-02T01:47:34.145Z,96.70
2019-05-02T01:49:36.565Z,96.00
2019-05-02T01:51:42.110Z,95.00
2019-05-02T01:53:41.888Z,95.10
2019-05-02T01:55:43.836Z,93.80
2019-05-02T01:57:46.024Z,94.10
2019-05-02T01:59:48.072Z,91.50
2019-05-02T02:01:53.201Z,92.00
2019-05-02T02:03:53.619Z,91.10
2019-05-02T02:05:55.293Z,90.30
2019-05-02T02:07:57.491Z,90.60
2019-05-02T02:09:59.698Z,91.30
2019-05-02T02:12:05.057Z,87.90
2019-05-02T02:14:07.260Z,85.70
2019-05-02T02:16:08.533Z,82.70
2019-05-02T02:18:11.000Z,77.90
2019-05-02T02:20:15.665Z,79.40
2019-05-02T02:22:29.371Z,79.60
2019-05-02T02:24:35.072Z,78.00
2019-05-02T02:26:36.736Z,80.60
2019-05-02T02:28:38.406Z,82.20
2019-05-02T02:30:40.090Z,81.10
2019-05-02T02:32:41.759Z,82.40
2019-05-02T02:34:43.439Z,83.10
2019-05-02T02:36:45.109Z,86.30
2019-05-02T02:38:46.783Z,88.00
2019-05-02T02:40:48.460Z,87.20
2019-05-02T02:42:50.118Z,85.20
2019-05-02T02:45:01.527Z,86.90
2019-05-02T02:47:04.533Z,87.20
2019-05-02T02:49:06.201Z,87.30
2019-05-02T02:51:07.884Z,87.30
2019-05-02T02:53:09.553Z,87.40
2019-05-02T02:55:16.240Z,86.40
2019-05-02T02:57:25.807Z,87.30
2019-05-02T02:59:19.463Z,87.20
2019-05-02T03:01:28.937Z,89.10
2019-05-02T03:03:27.799Z,87.80
2019-05-02T03:05:29.088Z,87.90
2019-05-02T03:07:30.756Z,91.40
2019-05-02T03:09:32.713Z,92.30
2019-05-02T03:11:43.490Z,92.90
2019-05-02T03:13:53.206Z,93.10
2019-05-02T03:16:00.292Z,94.00
2019-05-02T03:18:00.317Z,94.30
2019-05-02T03:20:03.897Z,95.00
2019-05-02T03:22:05.782Z,94.10
2019-05-02T03:24:07.445Z,94.30
2019-05-02T03:26:15.166Z,93.40
2019-05-02T03:28:18.493Z,92.30
2019-05-02T03:30:29.603Z,93.20
2019-05-02T03:32:32.147Z,93.00
2019-05-02T03:34:23.703Z,92.90
2019-05-02T03:36:30.190Z,93.50
2019-05-02T03:38:32.628Z,91.50
2019-05-02T03:40:39.254Z,92.10
2019-05-02T03:42:43.633Z,91.40
2019-05-02T03:44:39.675Z,92.80
2019-05-02T03:46:41.344Z,92.20
2019-05-02T03:48:43.009Z,92.10
2019-05-02T03:50:44.690Z,92.00
2019-05-02T03:52:46.652Z,91.40
2019-05-02T03:54:50.273Z,92.80
2019-05-02T03:56:53.436Z,92.90
2019-05-02T03:58:57.832Z,92.80
2019-05-02T04:01:01.688Z,92.60
2019-05-02T04:03:02.939Z,91.90
2019-05-02T04:05:04.897Z,92.60
2019-05-02T04:07:06.569Z,93.40
2019-05-02T04:09:23.250Z,92.40
2019-05-02T04:11:25.097Z,92.70
2019-05-02T04:13:30.151Z,94.40
2019-05-02T04:15:35.193Z,94.60
2019-05-02T04:17:35.202Z,94.50
2019-05-02T04:19:37.578Z,94.50
2019-05-02T04:21:39.350Z,95.30
2019-05-02T04:23:41.289Z,94.80
2019-05-02T04:25:42.969Z,94.80
2019-05-02T04:27:44.640Z,94.80
2019-05-02T04:29:46.313Z,95.70
2019-05-02T04:31:47.990Z,96.20
2019-05-02T04:33:49.665Z,96.00
2019-05-02T04:35:51.470Z,95.40
2019-05-02T04:37:53.226Z,96.40
2019-05-02T04:39:59.126Z,95.50
2019-05-02T04:42:05.071Z,95.50
2019-05-02T04:44:02.346Z,95.60
2019-05-02T04:46:09.245Z,97.90
2019-05-02T04:48:08.426Z,96.60
2019-05-02T04:50:17.832Z,97.40
2019-05-02T04:52:17.177Z,96.70
2019-05-02T04:54:25.773Z,96.90
2019-05-02T04:56:21.340Z,96.10
2019-05-02T04:58:27.737Z,95.80
2019-05-02T05:00:28.700Z,95.90
2019-05-02T05:02:36.503Z,97.00
2019-05-02T05:04:42.406Z,95.90
2019-05-02T05:06:38.056Z,95.50
2019-05-02T05:08:41.686Z,95.30
2019-05-02T05:10:45.019Z,95.50
2019-05-02T05:12:47.995Z,95.20
2019-05-02T05:14:50.008Z,96.30
2019-05-02T05:16:55.498Z,95.80
2019-05-02T05:18:55.429Z,96.00
2019-05-02T05:20:57.730Z,96.70
2019-05-02T05:22:59.966Z,95.80
2019-05-02T05:25:07.548Z,95.60
2019-05-02T05:27:13.275Z,96.10
2019-05-02T05:29:14.004Z,95.70
2019-05-02T05:31:23.986Z,95.40
2019-05-02T05:33:20.194Z,94.80
2019-05-02T05:35:21.856Z,95.30
2019-05-02T05:37:23.546Z,95.00
2019-05-02T05:39:25.200Z,95.40
2019-05-02T05:41:27.808Z,95.20
2019-05-02T05:43:29.740Z,95.30
2019-05-02T05:45:31.418Z,95.80
2019-05-02T05:47:33.089Z,95.00
2019-05-02T05:49:35.052Z,95.50
2019-05-02T05:51:37.532Z,95.80
2019-05-02T05:53:39.510Z,96.10
2019-05-02T05:55:41.185Z,95.10
2019-05-02T05:57:42.860Z,95.20
2019-05-02T05:59:44.845Z,94.70
2019-05-02T06:01:48.327Z,95.10
2019-05-02T06:03:50.112Z,95.60
2019-05-02T06:05:51.876Z,95.40
2019-05-02T06:07:53.562Z,95.80
2019-05-02T06:09:55.229Z,95.90
2019-05-02T06:11:56.946Z,94.70
2019-05-02T06:13:58.604Z,95.10
2019-05-02T06:16:02.652Z,95.50
2019-05-02T06:18:04.764Z,95.60
2019-05-02T06:20:06.889Z,94.30
2019-05-02T06:22:08.862Z,95.20
2019-05-02T06:24:10.916Z,95.50
2019-05-02T06:26:13.820Z,95.10
2019-05-02T06:28:16.626Z,95.30
2019-05-02T06:30:19.160Z,94.50
2019-05-02T06:32:20.834Z,94.80
2019-05-02T06:34:22.508Z,95.70
2019-05-02T06:36:24.189Z,94.50
2019-05-02T06:38:25.873Z,95.90
2019-05-02T06:40:27.540Z,94.20
2019-05-02T06:42:32.670Z,94.60
2019-05-02T06:44:32.781Z,95.40
2019-05-02T06:46:34.561Z,94.80
2019-05-02T06:48:36.254Z,94.60
2019-05-02T06:50:38.770Z,95.30
2019-05-02T06:52:42.034Z,95.10
2019-05-02T06:54:43.713Z,94.70
2019-05-02T06:56:47.939Z,94.30
2019-05-02T06:58:48.952Z,94.10
2019-05-02T07:00:58.499Z,94.00
2019-05-02T07:02:54.305Z,94.20
2019-05-02T07:04:56.157Z,94.90
2019-05-02T07:06:59.586Z,93.80
2019-05-02T07:09:01.713Z,94.70
2019-05-02T07:11:03.880Z,94.60
2019-05-02T07:13:10.739Z,94.60
2019-05-02T07:15:23.212Z,93.80
2019-05-02T07:17:53.770Z,94.40
2019-05-02T07:19:58.927Z,92.70
2019-05-02T07:22:04.345Z,93.30
2019-05-02T07:24:05.372Z,93.40
2019-05-02T07:26:07.353Z,92.70
2019-05-02T07:28:10.643Z,93.70
2019-05-02T07:30:13.500Z,94.70
2019-05-02T07:32:19.433Z,92.40
2019-05-02T07:34:18.759Z,92.70
2019-05-02T07:36:20.516Z,95.00
2019-05-02T07:38:25.775Z,93.70
2019-05-02T07:40:25.769Z,93.40
2019-05-02T07:42:27.442Z,91.90
2019-05-02T07:44:32.740Z,93.10
2019-05-02T07:46:32.681Z,92.90
2019-05-02T07:48:34.356Z,93.40
2019-05-02T07:50:36.287Z,93.70
2019-05-02T07:52:40.926Z,92.50
2019-05-02T07:54:41.534Z,94.50
2019-05-02T07:56:43.192Z,94.00
2019-05-02T07:58:48.018Z,92.10
2019-05-02T08:00:48.428Z,93.00
2019-05-02T08:02:50.328Z,92.50
2019-05-02T08:04:52.018Z,92.00
2019-05-02T08:06:53.701Z,91.00
2019-05-02T08:08:55.390Z,93.00
2019-05-02T08:11:01.737Z,92.70
2019-05-02T08:13:00.628Z,93.70
2019-05-02T08:15:02.396Z,94.80
2019-05-02T08:17:05.704Z,93.00
2019-05-02T08:19:07.720Z,94.20
2019-05-02T08:21:09.374Z,93.00
2019-05-02T08:23:13.434Z,91.80
2019-05-02T08:25:14.633Z,92.50
2019-05-02T08:27:39.958Z,92.20
2019-05-02T08:29:41.643Z,93.20
2019-05-02T08:31:43.312Z,93.40
2019-05-02T08:33:44.994Z,95.10
2019-05-02T08:35:46.660Z,94.10
2019-05-02T08:37:48.332Z,93.80
2019-05-02T08:39:50.001Z,94.40
2019-05-02T08:41:56.496Z,92.60
2019-05-02T08:43:55.500Z,93.20
2019-05-02T08:45:57.160Z,91.30
2019-05-02T08:48:00.279Z,91.90
2019-05-02T08:50:02.730Z,90.40
2019-05-02T08:52:04.750Z,90.80
2019-05-02T08:54:06.431Z,90.50
2019-05-02T08:56:08.106Z,90.10
2019-05-02T08:58:14.534Z,91.00
2019-05-02T09:00:13.600Z,91.70
2019-05-02T09:02:15.264Z,92.90
2019-05-02T09:04:16.943Z,91.80
2019-05-02T09:06:22.370Z,90.40
2019-05-02T09:08:22.172Z,92.60
2019-05-02T09:10:23.854Z,90.70
2019-05-02T09:12:25.761Z,91.00
2019-05-02T09:14:27.440Z,92.20
2019-05-02T09:16:30.551Z,91.70
2019-05-02T09:18:38.626Z,91.90
2019-05-02T09:20:36.260Z,88.60
2019-05-02T09:22:37.930Z,87.60
2019-05-02T09:24:42.981Z,90.00
2019-05-02T09:26:44.308Z,87.70
2019-05-02T09:28:45.974Z,85.50
2019-05-02T09:30:47.640Z,88.40
2019-05-02T09:32:49.357Z,86.80
2019-05-02T09:34:51.820Z,86.00
2019-05-02T09:36:53.707Z,84.30
2019-05-02T09:38:57.576Z,86.40
2019-05-02T09:40:59.217Z,84.50
2019-05-02T09:43:02.790Z,80.60
2019-05-02T09:45:05.068Z,84.30
2019-05-02T09:47:08.645Z,79.70
2019-05-02T09:49:15.749Z,83.50
2019-05-02T09:51:17.440Z,82.00
2019-05-02T09:53:20.648Z,82.70
2019-05-02T09:55:22.641Z,83.60
2019-05-02T09:57:24.522Z,86.00
2019-05-02T09:59:33.156Z,84.40
2019-05-02T10:01:36.741Z,78.50
2019-05-02T10:03:38.400Z,82.00
2019-05-02T10:05:40.068Z,77.30
2019-05-02T10:07:41.988Z,67.10
2019-05-02T10:09:44.058Z,74.40
2019-05-02T10:11:46.048Z,74.30
2019-05-02T10:13:47.709Z,69.90
2019-05-02T10:15:49.376Z,73.00
2019-05-02T10:17:51.902Z,75.00
2019-05-02T10:19:57.044Z,71.20
2019-05-02T10:21:57.369Z,72.60
2019-05-02T10:24:00.857Z,81.20
2019-05-02T10:26:03.013Z,73.70
2019-05-02T10:28:05.343Z,68.80
2019-05-02T10:30:11.805Z,74.60
2019-05-02T10:32:13.062Z,74.90
2019-05-02T10:34:17.624Z,69.10
2019-05-02T10:36:19.821Z,67.80
2019-05-02T10:38:22.758Z,66.80
2019-05-02T10:40:24.670Z,72.90
2019-05-02T10:42:26.573Z,66.20
2019-05-02T10:44:32.611Z,74.00
2019-05-02T10:46:57.290Z,67.90
2019-05-02T10:49:07.429Z,66.80
2019-05-02T10:51:28.789Z,63.10
2019-05-02T10:53:32.212Z,65.10
2019-05-02T10:55:34.049Z,66.60
2019-05-02T10:57:35.971Z,62.50
2019-05-02T10:59:37.636Z,58.30
2019-05-02T11:01:59.002Z,57.50
2019-05-02T11:04:02.718Z,64.60
2019-05-02T11:06:07.660Z,60.50
2019-05-02T11:08:08.294Z,66.50
2019-05-02T11:10:12.175Z,59.60
2019-05-02T11:12:24.328Z,61.80
2019-05-02T11:14:28.892Z,55.00
2019-05-02T11:16:53.220Z,52.80
2019-05-02T11:19:13.283Z,48.70
2019-05-02T11:21:15.282Z,56.40
2019-05-02T11:23:16.944Z,48.00
2019-05-02T11:25:18.612Z,50.30
2019-05-02T11:27:22.016Z,50.80
2019-05-02T11:29:23.868Z,58.10
2019-05-02T11:31:25.545Z,51.30
2019-05-02T11:33:27.213Z,54.90
2019-05-02T11:35:28.892Z,44.30
2019-05-02T11:37:32.348Z,31.60
2019-05-02T11:39:43.943Z,34.10
2019-05-02T11:41:37.721Z,28.80
2019-05-02T11:43:42.378Z,28.30
2019-05-02T11:45:43.269Z,24.80
2019-05-02T11:47:44.951Z,39.00
2019-05-02T11:49:46.939Z,27.70
2019-05-02T11:51:52.657Z,26.50
2019-05-02T11:53:53.769Z,27.70
2019-05-02T11:55:58.426Z,27.30
2019-05-02T11:58:01.037Z,21.70
2019-05-02T12:00:07.634Z,23.60
2019-05-02T12:02:18.785Z,27.80
2019-05-02T12:04:21.538Z,26.90
2019-05-02T12:06:23.481Z,26.60
2019-05-02T12:08:25.148Z,28.70
2019-05-02T12:10:27.945Z,33.20
2019-05-02T12:12:34.335Z,27.30
2019-05-02T12:14:36.363Z,25.90
2019-05-02T12:16:37.146Z,30.00
2019-05-02T12:18:39.064Z,32.70
2019-05-02T12:20:42.590Z,32.60
2019-05-02T12:22:44.321Z,32.30
2019-05-02T12:24:45.985Z,37.70
2019-05-02T12:26:47.678Z,35.50
2019-05-02T12:28:49.613Z,29.40
2019-05-02T12:30:52.023Z,34.50
2019-05-02T12:32:53.952Z,29.60
2019-05-02T12:34:55.604Z,35.80
2019-05-02T12:36:57.305Z,31.40
2019-05-02T12:38:58.970Z,34.40
2019-05-02T12:41:02.622Z,34.60
2019-05-02T12:43:04.525Z,38.10
2019-05-02T12:45:06.192Z,34.40
2019-05-02T12:47:07.869Z,37.10
2019-05-02T12:49:22.578Z,35.00
2019-05-02T12:51:13.122Z,34.60
2019-05-02T12:53:14.801Z,39.40
2019-05-02T12:55:16.470Z,37.00
2019-05-02T12:57:18.430Z,40.70
2019-05-02T12:59:20.097Z,37.50
2019-05-02T13:01:22.065Z,42.90
2019-05-02T13:03:52.912Z,40.00
2019-05-02T13:05:54.587Z,44.60
2019-05-02T13:07:56.265Z,45.70
2019-05-02T13:09:57.928Z,42.30
2019-05-02T13:12:03.962Z,43.70
2019-05-02T13:14:15.731Z,40.10
2019-05-02T13:16:09.287Z,38.30
2019-05-02T13:18:12.481Z,43.20
2019-05-02T13:20:16.220Z,48.80
2019-05-02T13:22:46.650Z,42.80
2019-05-02T13:24:54.087Z,47.30
2019-05-02T13:26:59.464Z,44.70
2019-05-02T13:28:58.456Z,51.20
2019-05-02T13:31:11.686Z,45.60
2019-05-02T13:33:20.309Z,45.60
2019-05-02T13:35:31.804Z,45.80
2019-05-02T13:37:33.013Z,49.20
2019-05-02T13:39:42.968Z,49.80
2019-05-02T13:41:44.637Z,49.70
2019-05-02T13:43:48.209Z,46.80
2019-05-02T13:46:15.424Z,45.20
2019-05-02T13:48:17.210Z,48.40
2019-05-02T13:50:18.868Z,51.20
2019-05-02T13:52:22.508Z,55.40
2019-05-02T13:54:24.845Z,64.70
2019-05-02T13:56:46.197Z,70.20
2019-05-02T13:58:48.128Z,76.10
2019-05-02T14:00:50.093Z,84.90
2019-05-02T14:02:52.049Z,90.30
2019-05-02T14:04:54.046Z,90.30
2019-05-02T14:06:56.004Z,91.60
2019-05-02T14:09:07.928Z,93.80
2019-05-02T14:11:25.930Z,94.90
2019-05-02T14:13:27.889Z,96.50
2019-05-02T14:15:35.136Z,96.30
2019-05-02T14:17:36.817Z,96.40
2019-05-02T14:19:38.484Z,96.40
2019-05-02T14:21:42.165Z,95.70
2019-05-02T14:23:43.732Z,96.90
2019-05-02T14:25:45.496Z,98.50
2019-05-02T14:27:51.554Z,98.30
2019-05-02T14:29:52.492Z,98.40
2019-05-02T14:31:54.355Z,98.20
2019-05-02T14:34:14.525Z,98.50
2019-05-02T14:36:16.614Z,96.80
2019-05-02T14:38:18.292Z,96.70
2019-05-02T14:40:29.045Z,98.00
2019-05-02T14:42:32.261Z,96.90
2019-05-02T14:45:01.359Z,97.10
2019-05-02T14:46:39.559Z,96.50
2019-05-02T14:48:45.098Z,97.30
2019-05-02T14:50:45.761Z,96.40
2019-05-02T14:52:47.603Z,97.20
2019-05-02T14:54:49.311Z,95.90
2019-05-02T14:57:02.237Z,94.70
2019-05-02T14:59:03.951Z,95.90
2019-05-02T15:01:05.612Z,97.10
2019-05-02T15:03:07.293Z,94.70
2019-05-02T15:05:09.266Z,94.80
2019-05-02T15:07:12.802Z,92.70
2019-05-02T15:09:16.755Z,94.10
2019-05-02T15:11:18.188Z,93.50
2019-05-02T15:13:19.860Z,93.50
2019-05-02T15:15:23.100Z,92.00
2019-05-02T15:17:27.958Z,92.80
2019-05-02T15:19:28.714Z,93.60
2019-05-02T15:21:46.893Z,95.10
2019-05-02T15:23:48.893Z,93.20
2019-05-02T15:25:52.491Z,92.00
2019-05-02T15:27:58.170Z,90.30
2019-05-02T15:30:05.113Z,94.40
2019-05-02T15:32:12.773Z,93.50
2019-05-02T15:34:22.700Z,91.10
2019-05-02T15:36:24.619Z,91.20
2019-05-02T15:38:28.202Z,90.40
2019-05-02T15:42:32.370Z,90.90
2019-05-02T15:44:34.532Z,92.30
2019-05-02T15:46:36.496Z,92.70
2019-05-02T15:48:38.177Z,92.80
2019-05-02T15:50:49.176Z,90.70
2019-05-02T15:52:47.448Z,90.20
2019-05-02T15:54:55.528Z,91.70
2019-05-02T15:57:00.638Z,90.20
2019-05-02T15:58:58.062Z,93.10
2019-05-02T16:01:14.749Z,93.80
2019-05-02T16:03:16.413Z,91.70
2019-05-02T16:05:18.101Z,95.60
2019-05-02T16:07:19.764Z,94.20
2019-05-02T16:09:21.649Z,95.70
2019-05-02T16:11:23.420Z,96.50
2019-05-02T16:13:25.090Z,97.00
2019-05-02T16:15:26.769Z,97.10
2019-05-02T16:17:28.437Z,98.50
2019-05-02T16:19:32.954Z,98.40
2019-05-02T16:21:45.506Z,98.90
2019-05-02T16:24:11.060Z,98.10
2019-05-02T16:26:09.019Z,99.10
2019-05-02T16:28:12.708Z,99.70
2019-05-02T16:30:18.497Z,99.90
2019-05-02T16:32:30.925Z,98.70
2019-05-02T16:34:35.256Z,99.30
2019-05-02T16:36:37.514Z,97.50
2019-05-02T16:38:39.199Z,98.40
2019-05-02T16:40:41.861Z,99.30
2019-05-02T16:42:44.141Z,97.30
2019-05-02T16:44:45.825Z,97.90
2019-05-02T16:46:47.601Z,98.10
2019-05-02T16:48:49.369Z,98.40
2019-05-02T16:50:51.054Z,98.20
2019-05-02T16:52:53.271Z,99.20
2019-05-02T16:54:55.258Z,98.60
2019-05-02T16:56:58.562Z,98.50
2019-05-02T16:59:02.016Z,97.60
2019-05-02T17:01:04.573Z,97.50
2019-05-02T17:03:06.248Z,97.90
2019-05-02T17:05:09.545Z,97.80
2019-05-02T17:07:16.789Z,96.80
2019-05-02T17:09:28.694Z,96.30
2019-05-02T17:11:35.995Z,97.00
2019-05-02T17:13:38.105Z,98.90
2019-05-02T17:15:40.168Z,99.40
2019-05-02T17:17:42.353Z,99.20
2019-05-02T17:19:44.237Z,99.00
2019-05-02T17:21:53.772Z,99.70
2019-05-02T17:23:50.447Z,99.70
2019-05-02T17:25:53.085Z,99.20
2019-05-02T17:28:01.172Z,99.90
2019-05-02T17:29:59.528Z,99.90
2019-05-02T17:32:02.478Z,99.90
2019-05-02T17:34:04.240Z,99.50
2019-05-02T17:36:05.920Z,99.90
2019-05-02T17:38:07.856Z,99.90
2019-05-02T17:40:09.636Z,99.90
2019-05-02T17:42:12.429Z,99.90
2019-05-02T17:44:18.376Z,99.90
2019-05-02T17:46:21.059Z,99.90
2019-05-02T17:48:21.962Z,99.90
2019-05-02T17:50:37.292Z,99.90
2019-05-02T17:52:43.552Z,99.90
2019-05-02T17:54:48.004Z,99.90
2019-05-02T17:56:52.379Z,99.90
2019-05-02T17:58:58.189Z,99.90
2019-05-02T18:01:00.747Z,99.90
2019-05-02T18:03:02.932Z,99.90
2019-05-02T18:05:04.652Z,99.90
2019-05-02T18:07:06.324Z,99.90
2019-05-02T18:09:07.999Z,99.90
2019-05-02T18:11:09.686Z,99.90
2019-05-02T18:13:12.140Z,99.90
2019-05-02T18:15:14.034Z,99.90
2019-05-02T18:17:15.716Z,99.90
2019-05-02T18:19:21.864Z,99.90
2019-05-02T18:21:26.887Z,99.90
2019-05-02T18:23:27.595Z,99.90
2019-05-02T18:25:28.101Z,99.90
2019-05-02T18:27:29.780Z,99.90
2019-05-02T18:29:31.448Z,99.90
2019-05-02T18:31:34.918Z,99.90
2019-05-02T18:33:41.116Z,99.90
2019-05-02T18:35:43.060Z,99.20
2019-05-02T18:37:46.760Z,95.90
2019-05-02T18:39:53.386Z,97.70
2019-05-02T18:41:51.965Z,98.30
2019-05-02T18:43:53.778Z,99.10
2019-05-02T18:45:58.179Z,99.70
2019-05-02T18:48:02.474Z,99.90
2019-05-02T18:50:06.113Z,99.90
2019-05-02T18:52:06.260Z,99.90
2019-05-02T18:54:07.924Z,99.90
2019-05-02T18:56:09.864Z,99.90
2019-05-02T18:58:12.761Z,99.90
2019-05-02T19:00:14.905Z,99.90
2019-05-02T19:02:16.577Z,99.90
2019-05-02T19:04:18.257Z,99.90
2019-05-02T19:06:21.876Z,99.90
2019-05-02T19:08:30.880Z,99.90
2019-05-02T19:10:27.069Z,99.90
2019-05-02T19:12:28.740Z,99.90
2019-05-02T19:14:32.577Z,99.90
2019-05-02T19:16:34.325Z,99.90
2019-05-02T19:18:35.992Z,99.90
2019-05-02T19:21:06.600Z,99.90
2019-05-02T19:23:08.277Z,99.90
2019-05-02T19:25:11.977Z,99.90
2019-05-02T19:27:15.418Z,99.90
2019-05-02T19:29:24.002Z,99.90
2019-05-02T19:31:32.047Z,99.90
2019-05-02T19:33:37.467Z,99.90
2019-05-02T19:35:42.081Z,99.90
2019-05-02T19:37:44.625Z,99.90
2019-05-02T19:39:48.654Z,99.90
2019-05-02T19:41:48.222Z,99.90
2019-05-02T19:43:51.464Z,99.90
2019-05-02T19:45:54.121Z,99.90
2019-05-02T19:47:57.688Z,99.90
2019-05-02T19:49:59.429Z,99.90
2019-05-02T19:52:02.262Z,99.90
2019-05-02T19:54:07.005Z,99.90
2019-05-02T19:56:07.884Z,99.90
2019-05-02T19:58:10.228Z,99.90
2019-05-02T20:00:12.210Z,99.90
2019-05-02T20:02:14.502Z,99.90
2019-05-02T20:04:16.481Z,99.90
2019-05-02T20:06:18.148Z,99.90
2019-05-02T20:08:24.077Z,99.90
2019-05-02T20:10:23.652Z,99.90
2019-05-02T20:12:25.338Z,99.90
2019-05-02T20:14:26.996Z,99.80
2019-05-02T20:16:36.700Z,97.90
2019-05-02T20:18:43.788Z,98.30
2019-05-02T20:20:48.070Z,98.50
2019-05-02T20:22:49.981Z,97.40
2019-05-02T20:24:55.435Z,98.00
2019-05-02T20:26:56.282Z,98.30
2019-05-02T20:28:57.954Z,97.40
2019-05-02T20:31:01.685Z,98.00
2019-05-02T20:33:05.251Z,98.40
2019-05-02T20:35:07.072Z,98.30
2019-05-02T20:37:08.757Z,99.80
2019-05-02T20:39:11.911Z,99.40
2019-05-02T20:41:14.205Z,99.80
2019-05-02T20:43:15.885Z,99.60
2019-05-02T20:45:17.550Z,99.30
2019-05-02T20:47:21.870Z,99.90
2019-05-02T20:49:23.834Z,99.90
2019-05-02T20:51:26.300Z,99.20
2019-05-02T20:53:31.414Z,98.30
2019-05-02T20:55:32.341Z,97.60
2019-05-02T20:57:34.164Z,99.20
2019-05-02T20:59:35.832Z,98.10
2019-05-02T21:01:37.779Z,96.00
2019-05-02T21:03:39.460Z,96.70
2019-05-02T21:06:06.737Z,97.10
2019-05-02T21:08:22.020Z,97.20
2019-05-02T21:10:29.821Z,96.60
2019-05-02T21:12:31.606Z,95.10
2019-05-02T21:14:33.585Z,95.80
2019-05-02T21:16:35.257Z,95.30
2019-05-02T21:18:37.188Z,96.00
2019-05-02T21:20:38.857Z,95.00
2019-05-02T21:22:42.166Z,94.70
2019-05-02T21:24:44.480Z,94.80
2019-05-02T21:26:46.145Z,94.50
2019-05-02T21:28:48.209Z,94.20
2019-05-02T21:30:49.880Z,93.70
2019-05-02T21:32:52.125Z,93.50
2019-05-02T21:34:53.960Z,94.40
2019-05-02T21:36:55.944Z,93.90
2019-05-02T21:38:57.624Z,95.00
2019-05-02T21:40:59.293Z,95.10
2019-05-02T21:43:02.482Z,95.10
2019-05-02T21:45:04.660Z,95.20
2019-05-02T21:47:06.422Z,94.70
2019-05-02T21:49:08.108Z,96.00
2019-05-02T21:51:26.631Z,95.90
2019-05-02T21:53:56.023Z,95.40
2019-05-02T21:56:09.157Z,96.20
2019-05-02T21:58:12.109Z,95.80
2019-05-02T22:00:18.169Z,95.40
2019-05-02T22:02:19.849Z,95.70
2019-05-02T22:04:22.412Z,96.40
2019-05-02T22:06:25.552Z,96.00
2019-05-02T22:08:27.240Z,96.80
2019-05-02T22:10:28.908Z,97.10
2019-05-02T22:12:31.766Z,96.30
2019-05-02T22:14:34.191Z,95.90
2019-05-02T22:16:35.860Z,95.50
2019-05-02T22:18:37.796Z,95.90
2019-05-02T22:20:39.496Z,96.00
2019-05-02T22:22:42.584Z,96.40
2019-05-02T22:24:44.649Z,97.10
2019-05-02T22:26:46.407Z,95.90
2019-05-02T22:28:48.242Z,95.60
2019-05-02T22:30:54.361Z,94.90
2019-05-02T22:32:54.324Z,95.50
2019-05-02T22:34:56.168Z,95.30
2019-05-02T22:36:58.148Z,95.20
2019-05-02T22:39:08.748Z,96.00
2019-05-02T22:41:12.144Z,95.80
2019-05-02T22:43:13.977Z,96.20
2019-05-02T22:45:15.675Z,97.50
2019-05-02T22:47:17.332Z,96.50
2019-05-02T22:49:19.013Z,96.50
2019-05-02T22:51:22.497Z,95.80
2019-05-02T22:53:24.248Z,97.30
2019-05-02T22:55:25.929Z,97.60
2019-05-02T22:57:27.596Z,96.80
2019-05-02T22:59:29.284Z,98.60
2019-05-02T23:01:32.405Z,98.80
2019-05-02T23:03:34.342Z,99.60
2019-05-02T23:05:36.020Z,97.80
2019-05-02T23:07:37.703Z,99.50
2019-05-02T23:09:39.374Z,99.00
2019-05-02T23:11:42.614Z,99.60
2019-05-02T23:13:44.806Z,99.30
2019-05-02T23:15:46.489Z,99.90
2019-05-02T23:17:48.149Z,98.60
2019-05-02T23:19:49.841Z,98.70
2019-05-02T23:21:52.633Z,98.20
2019-05-02T23:23:54.565Z,98.30
2019-05-02T23:26:10.056Z,96.60
2019-05-02T23:28:16.038Z,97.20
2019-05-02T23:30:22.412Z,94.90
2019-05-02T23:32:24.068Z,92.90
2019-05-02T23:34:25.745Z,94.60
2019-05-02T23:36:28.107Z,94.90
2019-05-02T23:38:29.782Z,94.80
2019-05-02T23:40:31.797Z,96.20
2019-05-02T23:42:33.464Z,96.10
2019-05-02T23:44:35.132Z,96.90
2019-05-02T23:46:36.800Z,96.40
2019-05-02T23:48:38.576Z,96.00
2019-05-02T23:50:40.254Z,96.70
2019-05-02T23:52:41.926Z,96.20
2019-05-02T23:54:51.718Z,97.90
2019-05-02T23:56:47.177Z,97.60
